Flight Track Log - Related Links

Times and Time Zones

All times are in EDT time to prevent confusion due to time zone crossing. See the SWA3396 flight status page for this flight to view local times or setup timezone preferences in your user account.

Time Position Orientation Groundspeed Altitude Reporting Facility
EDT Latitude Longitude Course Direction KTS MPH feet Rate Location/Type
Mon 05:39:22 PM 36.1328 -115.0908 65° Northeast 223 257 4,900  Level Los Angeles Center
Mon 05:40:11 PM 36.1378 -115.0278 84° East 235 270 6,400 2,273 Climbing Los Angeles Center
Mon 05:40:28 PM 36.1406 -114.9978 83° East 269 310 7,400 3,484 Climbing Los Angeles Center
Mon 05:41:13 PM 36.1489 -114.9239 82° East 282 325 10,000 3,344 Climbing Los Angeles Center
Mon 05:41:29 PM 36.1517 -114.9008 82° East 299 344 10,800 2,000 Climbing Los Angeles Center
Mon 05:42:16 PM 36.1578 -114.8311 84° East 303 349 12,100 2,752 Climbing Los Angeles Center
Mon 05:43:18 PM 36.1889 -114.6925 74° East 343 395 15,800 3,048 Climbing Los Angeles Center
Mon 05:44:20 PM 36.1889 -114.5631 90° East 368 423 18,400 2,468 Climbing Los Angeles Center
Mon 05:45:22 PM 36.1906 -114.4278 89° East 386 444 20,900 2,419 Climbing Los Angeles Center
Mon 05:46:24 PM 36.1925 -114.2867 89° East 404 465 23,400 2,323 Climbing Los Angeles Center
Mon 05:47:26 PM 36.2036 -114.1425 85° East 417 480 25,700 2,032 Climbing Los Angeles Center
Mon 05:48:28 PM 36.2222 -113.9961 81° East 426 490 27,600 1,733 Climbing Los Angeles Center
Mon 05:50:33 PM 36.2619 -113.6608 79° East 451 519 31,100 1,668 Climbing Los Angeles Center
Mon 05:51:35 PM 36.2803 -113.5022 82° East 461 531 32,800 1,548 Climbing Los Angeles Center
Mon 05:52:37 PM 36.2981 -113.3447 82° East 461 531 34,300 1,065 Climbing Los Angeles Center
Mon 05:53:39 PM 36.3269 -113.1875 77° East 459 528 35,000 339 Climbing Los Angeles Center
Mon 05:54:41 PM 36.3786 -113.0469 65° Northeast 451 519 35,000 339 Level Los Angeles Center
Mon 05:55:43 PM 36.4411 -112.8783 65° Northeast 451 519 35,700 960 Climbing Los Angeles Center
Mon 05:56:46 PM 36.4917 -112.7386 66° East 450 518 37,000 624 Climbing Los Angeles Center
Mon 05:57:48 PM 36.5431 -112.6011 65° Northeast 448 516 37,000  Level Los Angeles Center
Mon 05:58:50 PM 36.5928 -112.4633 66° East 444 511 37,000  Level Los Angeles Center
Mon 05:59:52 PM 36.6433 -112.3256 65° Northeast 443 510 37,000 194 Level Los Angeles Center
Mon 06:00:54 PM 36.7033 -112.1592 66° East 443 510 37,400 629 Climbing Los Angeles Center
Mon 06:01:56 PM 36.7536 -112.0194 66° East 443 510 38,300 774 Climbing Los Angeles Center
Mon 06:02:58 PM 36.8039 -111.8808 66° East 443 510 39,000 336 Climbing Los Angeles Center
Mon 06:04:01 PM 36.8536 -111.7425 66° East 443 510 39,000  Level Los Angeles Center
Mon 06:04:40 PM 36.8931 -111.6325 66° East 440 506 39,000  Level Denver Center
Mon 06:05:42 PM 36.9417 -111.4958 66° East 437 503 39,000  Level Denver Center
Mon 06:06:44 PM 36.9892 -111.3608 66° East 432 497 39,000  Level Denver Center
Mon 06:07:46 PM 37.0364 -111.2242 67° East 431 496 39,000  Level Denver Center
Mon 06:08:48 PM 37.0842 -111.0858 67° East 431 496 39,000  Level Denver Center
Mon 06:09:50 PM 37.1314 -110.9494 66° East 432 497 39,000  Level Denver Center
Mon 06:10:52 PM 37.1883 -110.7850 66° East 431 496 39,000  Level Denver Center
Mon 06:11:54 PM 37.2361 -110.6461 67° East 431 496 39,000  Level Denver Center
Mon 06:12:56 PM 37.2839 -110.5061 67° East 434 499 39,000  Level Denver Center
Mon 06:13:57 PM 37.3317 -110.3672 67° East 435 501 39,000  Level Denver Center
Mon 06:14:59 PM 37.3786 -110.2275 67° East 435 501 39,000  Level Denver Center
Mon 06:16:01 PM 37.4264 -110.0889 67° East 435 501 39,000  Level Denver Center
Mon 06:17:03 PM 37.5147 -109.9878 42° Northeast 389 448 39,000  Level Denver Center
Mon 06:18:04 PM 37.6114 -109.9667 10° North 370 426 39,000  Level Denver Center
Mon 06:19:06 PM 37.7256 -109.9419 10° North 371 427 39,000  Level Denver Center
Mon 06:20:08 PM 37.8044 -109.8719 35° Northeast 394 453 39,000  Level Denver Center
Mon 06:21:10 PM 37.8494 -109.7067 71° East 439 505 39,000  Level Denver Center
Mon 06:22:11 PM 37.8906 -109.5694 69° East 438 504 39,000  Level Denver Center
Mon 06:23:13 PM 37.9314 -109.4336 69° East 432 497 39,000  Level Denver Center
Mon 06:24:15 PM 37.9775 -109.2731 70° East 432 497 39,000  Level Denver Center
Mon 06:25:16 PM 38.0175 -109.1361 70° East 432 497 39,000  Level Denver Center
Mon 06:26:18 PM 38.0611 -108.9850 70° East 432 497 39,000  Level Denver Center
Mon 06:27:19 PM 38.1064 -108.8256 70° East 433 498 39,000  Level Denver Center
Mon 06:28:21 PM 38.1458 -108.6922 69° East 426 490 39,000  Level Denver Center
Mon 06:29:23 PM 38.1839 -108.5536 71° East 431 496 39,000  Level Denver Center
Mon 06:30:24 PM 38.2303 -108.3919 70° East 434 499 39,000  Level Denver Center
Mon 06:31:26 PM 38.2689 -108.2542 70° East 434 499 39,000  Level Denver Center
Mon 06:32:28 PM 38.3139 -108.0900 71° East 436 502 39,000  Level Denver Center
Mon 06:33:29 PM 38.3544 -107.9486 70° East 442 509 39,000 -244 Level Denver Center
Mon 06:34:31 PM 38.3989 -107.7844 71° East 442 509 38,500 -683 Descending Denver Center
Mon 06:35:32 PM 38.4375 -107.6439 71° East 442 509 37,600 -973 Descending Denver Center
Mon 06:37:36 PM 38.5497 -107.3767 62° Northeast 407 468 35,500 -973 Descending Denver Center
Mon 06:38:37 PM 38.6042 -107.2553 60° Northeast 408 470 34,600 -878 Descending Denver Center
Mon 06:39:39 PM 38.6614 -107.1269 60° Northeast 410 472 33,700 -927 Descending Denver Center
Mon 06:40:40 PM 38.7167 -106.9997 61° Northeast 411 473 32,700 -976 Descending Denver Center
Mon 06:41:42 PM 38.7714 -106.8753 61° Northeast 400 460 31,700 -1,065 Descending Denver Center
Mon 06:42:44 PM 38.8336 -106.7356 60° Northeast 388 447 30,500 -1,122 Descending Denver Center
Mon 06:43:45 PM 38.8867 -106.6161 60° Northeast 386 444 29,400 -1,024 Descending Denver Center
Mon 06:44:47 PM 38.9406 -106.5006 59° Northeast 377 434 28,400 -976 Descending Denver Center
Mon 06:45:48 PM 38.9931 -106.3914 58° Northeast 376 433 27,400 -976 Descending Denver Center
Mon 06:46:50 PM 39.0503 -106.2672 59° Northeast 368 423 26,400 -677 Descending Denver Center
Mon 06:47:52 PM 39.0939 -106.1675 61° Northeast 360 414 26,000 -195 Descending Denver Center
Mon 06:48:53 PM 39.1417 -106.0575 61° Northeast 354 407 26,000  Level Denver Center
Mon 06:49:55 PM 39.1994 -105.9247 61° Northeast 354 407 26,000 -919 Level Denver Center
Mon 06:50:57 PM 39.2489 -105.8150 60° Northeast 355 409 24,100 -1,707 Descending Denver Center
Mon 06:51:58 PM 39.2942 -105.7100 61° Northeast 343 395 22,500 -1,366 Descending Denver Center
Mon 06:53:00 PM 39.3369 -105.6144 60° Northeast 318 366 21,300 -1,355 Descending Denver Center
Mon 06:54:02 PM 39.3775 -105.5214 61° Northeast 305 351 19,700 -1,561 Descending Denver Center
Mon 06:55:03 PM 39.3978 -105.4039 77° East 325 374 18,100 -1,463 Descending Denver Center
Mon 06:56:05 PM 39.4039 -105.2881 86° East 325 374 16,700 -1,561 Descending Denver Center
Mon 06:57:06 PM 39.4106 -105.1608 86° East 322 371 14,900 -1,561 Descending Denver Center
Mon 06:58:08 PM 39.4144 -105.0458 87° East 324 373 13,500 -871 Descending Denver Center
Mon 06:59:10 PM 39.4197 -104.9397 86° East 298 343 13,100 -683 Descending Denver Center
Mon 07:00:11 PM 39.4372 -104.8428 77° East 273 314 12,100 -976 Descending Denver Center
Mon 07:01:13 PM 39.4994 -104.8100 22° Northeast 244 281 11,100 -919 Descending Denver Center
Mon 07:02:15 PM 39.5561 -104.7669 30° Northeast 239 275 10,200 -634 Descending Denver Center
Mon 07:03:16 PM 39.6117 -104.7217 32° Northeast 214 246 9,800 -683 Descending Denver Center
Mon 07:04:18 PM 39.6594 -104.6828 32° Northeast 205 236 8,800 -968 Descending Denver Center
Mon 07:05:20 PM 39.7119 -104.6631 16° North 190 219 7,800 -927 Descending Denver Center
Mon 07:06:21 PM 39.7586 -104.6614 North 172 198 6,900 -829 Descending Denver Center
Mon 07:07:23 PM 39.7986 -104.6617 360° North 149 171 6,100 -774 Descending Denver Center
Mon 07:08:25 PM 39.8394 -104.6603 North 142 163 5,300 -774 Descending Denver Center
Mon 07:10:00 PM 39.8500 -104.6667 North  Level FlightAware Approximate
Mon 07:17:00 PM 39.8617 -104.6732 337° Northwest  Level Estimated
Mon 07:18:00 PM 39.8617 -104.6732 North  Level Estimated
Mon 07:19:00 PM 39.8617 -104.6732 North  Level Estimated

Login

Don't have an account? Register now (free) for customized features, flight alerts, and more!